createdAt,value
2022-12-11T00:00:22.836Z,17.40
2022-12-11T00:02:49.525Z,17.65
2022-12-11T00:05:16.387Z,17.13
2022-12-11T00:07:43.035Z,17.30
2022-12-11T00:10:09.966Z,17.70
2022-12-11T00:12:36.567Z,19.98
2022-12-11T00:15:05.148Z,19.33
2022-12-11T00:17:31.995Z,17.75
2022-12-11T00:19:58.563Z,18.77
2022-12-11T00:22:25.124Z,19.13
2022-12-11T00:24:51.736Z,19.27
2022-12-11T00:27:18.370Z,17.38
2022-12-11T00:29:45.005Z,20.02
2022-12-11T00:32:13.041Z,19.98
2022-12-11T00:34:39.996Z,18.15
2022-12-11T00:37:06.789Z,18.23
2022-12-11T00:39:33.488Z,18.08
2022-12-11T00:42:00.272Z,17.33
2022-12-11T00:44:26.838Z,17.77
2022-12-11T00:46:53.622Z,17.05
2022-12-11T00:49:21.795Z,18.55
2022-12-11T00:51:48.387Z,18.25
2022-12-11T00:54:14.993Z,18.42
2022-12-11T00:56:41.571Z,18.52
2022-12-11T00:59:08.259Z,18.05
2022-12-11T01:01:35.313Z,19.33
2022-12-11T01:04:01.952Z,17.80
2022-12-11T01:06:29.979Z,19.30
2022-12-11T01:08:56.833Z,19.15
2022-12-11T01:11:23.504Z,18.33
2022-12-11T01:13:50.031Z,18.73
2022-12-11T01:16:16.859Z,18.77
2022-12-11T01:18:44.343Z,17.70
2022-12-11T01:21:13.282Z,16.70
2022-12-11T01:23:41.161Z,17.75
2022-12-11T01:26:09.609Z,19.40
2022-12-11T01:28:36.437Z,21.45
2022-12-11T01:31:07.175Z,18.20
2022-12-11T01:33:33.782Z,19.27
2022-12-11T01:36:00.428Z,19.65
2022-12-11T01:38:27.065Z,18.73
2022-12-11T01:40:54.979Z,19.92
2022-12-11T01:43:21.624Z,18.45
2022-12-11T01:45:48.683Z,18.33
2022-12-11T01:48:18.872Z,18.08
2022-12-11T01:50:48.831Z,18.13
2022-12-11T01:53:19.865Z,20.65
2022-12-11T01:55:48.237Z,18.63
2022-12-11T01:58:18.215Z,18.70
2022-12-11T02:00:44.930Z,19.67
2022-12-11T02:03:11.483Z,18.42
2022-12-11T02:05:38.227Z,18.95
2022-12-11T02:08:07.175Z,18.33
2022-12-11T02:10:47.711Z,19.08
2022-12-11T02:13:21.246Z,18.45
2022-12-11T02:15:52.598Z,18.05
2022-12-11T02:18:28.890Z,14.18
2022-12-11T02:21:02.277Z,18.20
2022-12-11T02:23:45.230Z,18.60
2022-12-11T02:26:30.142Z,56.75
2022-12-11T02:29:00.984Z,45.05
2022-12-11T02:31:34.678Z,19.30
2022-12-11T02:34:04.886Z,20.23
2022-12-11T02:36:35.837Z,18.10
2022-12-11T02:39:04.812Z,19.17
2022-12-11T02:41:33.836Z,20.20
2022-12-11T02:44:04.238Z,18.50
2022-12-11T02:46:34.248Z,19.08
2022-12-11T02:49:04.468Z,17.73
2022-12-11T02:51:35.022Z,19.38
2022-12-11T02:54:02.637Z,19.55
2022-12-11T02:56:33.587Z,19.08
2022-12-11T02:59:06.850Z,19.37
2022-12-11T03:01:33.708Z,20.90
2022-12-11T03:04:00.352Z,21.33
2022-12-11T03:06:32.128Z,21.38
2022-12-11T03:08:58.721Z,19.90
2022-12-11T03:11:25.239Z,20.50
2022-12-11T03:13:53.472Z,17.95
2022-12-11T03:16:33.689Z,18.77
2022-12-11T03:19:09.132Z,18.63
2022-12-11T03:21:42.364Z,18.60
2022-12-11T03:24:12.422Z,19.45
2022-12-11T03:26:42.204Z,18.23
2022-12-11T03:29:17.844Z,18.55
2022-12-11T03:31:51.840Z,18.98
2022-12-11T03:34:23.600Z,21.05
2022-12-11T03:36:51.688Z,18.80
2022-12-11T03:39:24.816Z,21.67
2022-12-11T03:41:53.533Z,20.95
2022-12-11T03:44:21.393Z,23.33
2022-12-11T03:46:50.320Z,24.55
2022-12-11T03:49:20.254Z,20.85
2022-12-11T03:51:50.020Z,27.52
2022-12-11T03:54:17.795Z,32.78
2022-12-11T03:56:45.455Z,25.95
2022-12-11T03:59:12.521Z,22.42
2022-12-11T04:01:39.700Z,22.23
2022-12-11T04:04:07.688Z,22.35
2022-12-11T04:06:34.447Z,20.95
2022-12-11T04:09:00.980Z,20.92
2022-12-11T04:11:27.609Z,19.75
2022-12-11T04:13:54.232Z,20.17
2022-12-11T04:16:20.803Z,18.60
2022-12-11T04:18:47.927Z,20.02
2022-12-11T04:21:15.887Z,18.55
2022-12-11T04:23:42.436Z,19.52
2022-12-11T04:26:10.745Z,19.50
2022-12-11T04:28:37.641Z,20.88
2022-12-11T04:31:05.101Z,19.17
2022-12-11T04:33:31.812Z,18.35
2022-12-11T04:35:59.340Z,18.33
2022-12-11T04:38:27.361Z,17.95
2022-12-11T04:40:58.184Z,19.13
2022-12-11T04:43:24.842Z,18.67
2022-12-11T04:45:51.346Z,19.05
2022-12-11T04:48:18.105Z,18.50
2022-12-11T04:50:44.790Z,18.58
2022-12-11T04:53:11.329Z,21.85
2022-12-11T04:55:40.428Z,18.98
2022-12-11T04:58:07.068Z,20.27
2022-12-11T05:00:33.580Z,19.55
2022-12-11T05:03:00.264Z,18.52
2022-12-11T05:05:26.888Z,18.63
2022-12-11T05:07:53.577Z,19.30
2022-12-11T05:10:20.113Z,20.35
2022-12-11T05:12:48.190Z,18.75
2022-12-11T05:15:14.780Z,19.52
2022-12-11T05:17:41.377Z,20.83
2022-12-11T05:20:08.935Z,20.67
2022-12-11T05:22:35.748Z,20.83
2022-12-11T05:25:02.389Z,20.33
2022-12-11T05:27:29.050Z,24.05
2022-12-11T05:29:59.600Z,20.52
2022-12-11T05:32:26.492Z,24.55
2022-12-11T05:34:53.211Z,20.08
2022-12-11T05:37:19.785Z,21.52
2022-12-11T05:39:46.260Z,20.63
2022-12-11T05:42:12.835Z,20.90
2022-12-11T05:44:39.313Z,19.90
2022-12-11T05:47:07.269Z,21.13
2022-12-11T05:49:33.765Z,21.40
2022-12-11T05:52:00.297Z,20.38
2022-12-11T05:54:26.774Z,23.20
2022-12-11T05:56:53.442Z,21.58
2022-12-11T05:59:19.959Z,21.27
2022-12-11T06:01:46.821Z,21.70
2022-12-11T06:04:14.890Z,22.92
2022-12-11T06:06:42.175Z,21.45
2022-12-11T06:09:12.593Z,21.85
2022-12-11T06:11:39.316Z,20.95
2022-12-11T06:14:05.843Z,21.77
2022-12-11T06:16:32.865Z,23.33
2022-12-11T06:18:59.715Z,22.25
2022-12-11T06:21:29.943Z,20.58
2022-12-11T06:23:58.487Z,23.45
2022-12-11T06:26:25.937Z,23.00
2022-12-11T06:28:53.072Z,24.52
2022-12-11T06:31:20.537Z,28.55
2022-12-11T06:33:47.391Z,23.92
2022-12-11T06:36:16.927Z,24.27
2022-12-11T06:38:46.020Z,24.88
2022-12-11T06:41:12.755Z,21.38
2022-12-11T06:43:40.816Z,22.50
2022-12-11T06:46:09.554Z,22.45
2022-12-11T06:48:36.909Z,23.52
2022-12-11T06:51:06.804Z,23.10
2022-12-11T06:53:33.452Z,23.27
2022-12-11T06:56:03.773Z,28.75
2022-12-11T06:58:30.331Z,23.70
2022-12-11T07:00:56.882Z,30.08
2022-12-11T07:03:23.433Z,22.45
2022-12-11T07:05:50.022Z,21.40
2022-12-11T07:08:16.884Z,21.65
2022-12-11T07:10:43.478Z,21.25
2022-12-11T07:13:11.383Z,20.70
2022-12-11T07:15:40.527Z,22.50
2022-12-11T07:18:09.028Z,22.55
2022-12-11T07:20:35.615Z,22.15
2022-12-11T07:23:02.145Z,20.45
2022-12-11T07:25:28.736Z,21.48
2022-12-11T07:27:55.421Z,21.40
2022-12-11T07:30:23.313Z,19.58
2022-12-11T07:32:50.301Z,21.85
2022-12-11T07:35:16.945Z,20.65
2022-12-11T07:37:43.714Z,20.27
2022-12-11T07:40:11.281Z,20.50
2022-12-11T07:42:42.827Z,19.55
2022-12-11T07:45:12.938Z,19.88
2022-12-11T07:47:41.318Z,22.50
2022-12-11T07:50:08.558Z,20.67
2022-12-11T07:52:35.930Z,23.60
2022-12-11T07:55:03.449Z,28.13
2022-12-11T07:57:29.967Z,28.77
2022-12-11T07:59:56.592Z,29.88
2022-12-11T08:02:23.228Z,21.55
2022-12-11T08:04:51.579Z,21.77
2022-12-11T08:07:18.318Z,19.75
2022-12-11T08:09:44.862Z,20.88
2022-12-11T08:12:12.487Z,20.58
2022-12-11T08:14:39.124Z,20.77
2022-12-11T08:17:05.745Z,19.38
2022-12-11T08:19:32.431Z,24.25
2022-12-11T08:22:00.522Z,27.42
2022-12-11T08:24:27.836Z,26.35
2022-12-11T08:26:54.334Z,27.73
2022-12-11T08:29:20.930Z,38.13
2022-12-11T08:31:47.536Z,27.58
2022-12-11T08:34:14.183Z,26.75
2022-12-11T08:36:41.165Z,27.85
2022-12-11T08:39:10.841Z,24.75
2022-12-11T08:41:37.410Z,22.50
2022-12-11T08:44:05.976Z,20.70
2022-12-11T08:46:32.783Z,21.20
2022-12-11T08:48:59.869Z,20.98
2022-12-11T08:51:29.125Z,20.90
2022-12-11T08:53:56.857Z,20.13
2022-12-11T08:56:26.270Z,22.00
2022-12-11T08:58:53.407Z,22.90
2022-12-11T09:01:23.336Z,20.88
2022-12-11T09:03:51.289Z,22.70
2022-12-11T09:06:20.130Z,23.95
2022-12-11T09:08:52.560Z,20.25
2022-12-11T09:11:21.610Z,19.40
2022-12-11T09:13:49.746Z,22.15
2022-12-11T09:16:19.412Z,21.45
2022-12-11T09:18:47.746Z,23.27
2022-12-11T09:21:16.961Z,21.08
2022-12-11T09:23:44.146Z,21.75
2022-12-11T09:26:13.041Z,20.75
2022-12-11T09:28:44.420Z,20.15
2022-12-11T09:31:16.246Z,22.30
2022-12-11T09:33:43.278Z,21.90
2022-12-11T09:36:10.911Z,22.50
2022-12-11T09:38:38.032Z,22.65
2022-12-11T09:41:23.010Z,22.25
2022-12-11T09:43:59.126Z,22.70
2022-12-11T09:46:33.802Z,20.80
2022-12-11T09:49:02.994Z,21.95
2022-12-11T09:51:36.605Z,20.33
2022-12-11T09:54:05.076Z,20.58
2022-12-11T09:56:34.335Z,20.67
2022-12-11T09:59:09.279Z,20.10
2022-12-11T10:01:45.378Z,19.63
2022-12-11T10:04:25.814Z,20.63
2022-12-11T10:07:02.359Z,19.58
2022-12-11T10:09:39.893Z,20.70
2022-12-11T10:12:18.740Z,20.10
2022-12-11T10:14:58.947Z,19.17
2022-12-11T10:17:30.823Z,18.92
2022-12-11T10:20:00.329Z,19.48
2022-12-11T10:22:31.592Z,18.15
2022-12-11T10:25:16.294Z,17.85
2022-12-11T10:27:43.109Z,18.42
2022-12-11T10:30:16.235Z,17.65
2022-12-11T10:32:51.308Z,17.92
2022-12-11T10:35:29.698Z,16.85
2022-12-11T10:38:02.456Z,17.30
2022-12-11T10:40:30.685Z,17.10
2022-12-11T10:42:57.227Z,18.20
2022-12-11T10:45:24.510Z,17.88
2022-12-11T10:48:02.365Z,16.55
2022-12-11T10:50:29.080Z,19.85
2022-12-11T10:52:55.813Z,21.58
2022-12-11T10:55:25.967Z,23.50
2022-12-11T10:57:58.673Z,28.38
2022-12-11T11:00:35.491Z,73.15
2022-12-11T11:03:04.651Z,17.30
2022-12-11T11:05:33.524Z,20.63
2022-12-11T11:08:10.860Z,16.52
2022-12-11T11:10:37.582Z,17.17
2022-12-11T11:13:04.104Z,16.88
2022-12-11T11:15:31.173Z,16.25
2022-12-11T11:18:09.159Z,16.88
2022-12-11T11:20:42.730Z,15.65
2022-12-11T11:23:13.909Z,17.08
2022-12-11T11:25:50.350Z,17.83
2022-12-11T11:28:20.773Z,15.52
2022-12-11T11:31:00.768Z,16.88
2022-12-11T11:33:28.793Z,15.20
2022-12-11T11:35:58.355Z,15.07
2022-12-11T11:38:28.507Z,13.75
2022-12-11T11:41:05.620Z,15.27
2022-12-11T11:43:40.597Z,14.95
2022-12-11T11:46:13.992Z,15.80
2022-12-11T11:48:50.264Z,15.07
2022-12-11T11:51:24.464Z,15.32
2022-12-11T11:53:54.310Z,16.55
2022-12-11T11:56:23.403Z,16.05
2022-12-11T11:58:57.029Z,17.52
2022-12-11T12:01:24.025Z,18.67
2022-12-11T12:03:51.641Z,37.47
2022-12-11T12:06:34.178Z,21.13
2022-12-11T12:09:14.692Z,21.65
2022-12-11T12:11:49.990Z,21.02
2022-12-11T12:14:51.034Z,20.88
2022-12-11T12:17:22.203Z,19.10
2022-12-11T12:19:56.146Z,21.30
2022-12-11T12:22:40.680Z,17.35
2022-12-11T12:25:20.655Z,22.52
2022-12-11T12:27:56.432Z,15.52
2022-12-11T12:30:24.185Z,30.45
2022-12-11T12:33:12.633Z,17.30
2022-12-11T12:35:51.993Z,15.38
2022-12-11T12:38:30.352Z,15.07
2022-12-11T12:41:07.699Z,14.85
2022-12-11T12:44:00.923Z,16.17
2022-12-11T12:46:38.481Z,16.05
2022-12-11T12:49:10.631Z,18.13
2022-12-11T12:51:37.260Z,26.75
2022-12-11T12:54:12.477Z,16.35
2022-12-11T12:56:39.797Z,13.57
2022-12-11T12:59:17.859Z,12.25
2022-12-11T13:01:47.609Z,12.23
2022-12-11T13:04:55.567Z,13.80
2022-12-11T13:07:26.005Z,13.85
2022-12-11T13:10:00.135Z,14.40
2022-12-11T13:12:45.126Z,11.40
2022-12-11T13:15:31.905Z,11.57
2022-12-11T13:17:59.332Z,10.88
2022-12-11T13:20:27.424Z,11.25
2022-12-11T13:23:08.173Z,11.82
2022-12-11T13:25:49.367Z,12.90
2022-12-11T13:28:46.124Z,13.90
2022-12-11T13:31:30.310Z,14.25
2022-12-11T13:34:03.303Z,13.75
2022-12-11T13:36:33.701Z,13.13
2022-12-11T13:39:04.429Z,12.35
2022-12-11T13:41:36.070Z,11.52
2022-12-11T13:44:04.739Z,12.40
2022-12-11T13:46:35.605Z,12.13
2022-12-11T13:49:04.174Z,12.68
2022-12-11T13:51:32.557Z,13.27
2022-12-11T13:54:16.685Z,13.07
2022-12-11T13:56:56.198Z,12.70
2022-12-11T13:59:48.238Z,14.45
2022-12-11T14:02:21.067Z,12.88
2022-12-11T14:04:51.173Z,12.90
2022-12-11T14:07:25.933Z,14.25
2022-12-11T14:09:56.704Z,13.68
2022-12-11T14:12:24.725Z,13.43
2022-12-11T14:14:54.628Z,13.75
2022-12-11T14:17:25.641Z,13.55
2022-12-11T14:19:53.328Z,14.00
2022-12-11T14:22:22.236Z,15.38
2022-12-11T14:24:50.703Z,14.73
2022-12-11T14:27:18.510Z,14.98
2022-12-11T14:29:47.263Z,14.23
2022-12-11T14:32:18.937Z,14.07
2022-12-11T14:34:49.373Z,13.35
2022-12-11T14:37:20.101Z,15.05
2022-12-11T14:39:54.261Z,14.52
2022-12-11T14:42:24.553Z,14.48
2022-12-11T14:44:56.289Z,14.23
2022-12-11T14:47:27.123Z,16.45
2022-12-11T14:49:59.786Z,15.50
2022-12-11T14:52:31.024Z,14.35
2022-12-11T14:55:02.996Z,14.93
2022-12-11T14:59:58.939Z,15.90
2022-12-11T15:02:29.638Z,22.65
2022-12-11T15:05:18.711Z,26.38
2022-12-11T15:07:55.468Z,18.17
2022-12-11T15:10:34.776Z,32.95
2022-12-11T15:13:02.652Z,17.15
2022-12-11T15:15:37.505Z,17.17
2022-12-11T15:18:12.498Z,16.92
2022-12-11T15:20:39.181Z,15.90
2022-12-11T15:23:07.744Z,15.90
2022-12-11T15:25:34.483Z,15.57
2022-12-11T15:28:01.494Z,16.40
2022-12-11T15:30:33.118Z,13.45
2022-12-11T15:33:05.465Z,15.20
2022-12-11T15:37:59.279Z,18.58
2022-12-11T15:40:27.174Z,18.35
2022-12-11T15:42:54.488Z,16.67
2022-12-11T15:45:23.716Z,13.27
2022-12-11T15:47:52.537Z,15.65
2022-12-11T15:50:20.999Z,15.88
2022-12-11T15:52:48.985Z,16.77
2022-12-11T15:55:16.091Z,15.60
2022-12-11T15:57:47.259Z,16.15
2022-12-11T16:00:15.513Z,14.07
2022-12-11T16:02:42.146Z,15.43
2022-12-11T16:05:10.772Z,16.17
2022-12-11T16:07:37.862Z,15.65
2022-12-11T16:10:06.110Z,16.95
2022-12-11T16:12:32.706Z,15.90
2022-12-11T16:14:59.650Z,15.98
2022-12-11T16:17:26.162Z,15.18
2022-12-11T16:19:53.459Z,15.80
2022-12-11T16:22:21.358Z,13.55
2022-12-11T16:24:48.182Z,14.77
2022-12-11T16:27:19.930Z,13.93
2022-12-11T16:29:50.487Z,15.00
2022-12-11T16:32:17.431Z,12.38
2022-12-11T16:34:44.384Z,14.75
2022-12-11T16:37:11.396Z,13.75
2022-12-11T16:39:39.388Z,14.13
2022-12-11T16:42:06.833Z,15.90
2022-12-11T16:44:33.517Z,13.90
2022-12-11T16:47:00.756Z,15.45
2022-12-11T16:49:28.298Z,19.27
2022-12-11T16:51:58.014Z,19.35
2022-12-11T16:54:24.740Z,13.63
2022-12-11T16:56:52.640Z,12.07
2022-12-11T16:59:19.479Z,12.18
2022-12-11T17:01:46.067Z,14.32
2022-12-11T17:04:12.637Z,12.63
2022-12-11T17:06:39.181Z,12.63
2022-12-11T17:09:05.753Z,12.95
2022-12-11T17:11:32.268Z,14.45
2022-12-11T17:14:00.523Z,14.95
2022-12-11T17:16:28.800Z,12.65
2022-12-11T17:18:56.021Z,13.88
2022-12-11T17:21:23.318Z,12.55
2022-12-11T17:23:50.585Z,13.23
2022-12-11T17:26:17.700Z,13.30
2022-12-11T17:28:44.861Z,14.73
2022-12-11T17:31:17.774Z,13.50
2022-12-11T17:33:45.215Z,13.35
2022-12-11T17:36:14.248Z,12.32
2022-12-11T17:38:41.078Z,14.02
2022-12-11T17:41:08.000Z,14.02
2022-12-11T17:43:34.625Z,17.60
2022-12-11T17:46:01.818Z,14.88
2022-12-11T17:48:29.837Z,16.02
2022-12-11T17:50:56.732Z,13.68
2022-12-11T17:53:24.167Z,14.93
2022-12-11T17:55:52.129Z,13.85
2022-12-11T17:58:23.435Z,14.27
2022-12-11T18:00:54.682Z,14.53
2022-12-11T18:03:22.336Z,13.73
2022-12-11T18:05:53.683Z,14.18
2022-12-11T18:08:23.036Z,14.00
2022-12-11T18:10:50.270Z,12.45
2022-12-11T18:13:19.883Z,13.98
2022-12-11T18:16:01.535Z,13.23
2022-12-11T18:18:30.132Z,13.00
2022-12-11T18:20:58.760Z,12.85
2022-12-11T18:23:30.373Z,13.95
2022-12-11T18:25:58.957Z,13.27
2022-12-11T18:28:25.970Z,13.13
2022-12-11T18:30:56.612Z,14.68
2022-12-11T18:33:24.120Z,13.75
2022-12-11T18:35:51.895Z,13.65
2022-12-11T18:38:22.418Z,13.73
2022-12-11T18:40:50.876Z,12.05
2022-12-11T18:43:18.154Z,13.38
2022-12-11T18:45:46.145Z,13.27
2022-12-11T18:48:18.791Z,12.95
2022-12-11T18:50:46.436Z,13.00
2022-12-11T18:53:13.279Z,13.52
2022-12-11T18:55:46.088Z,13.35
2022-12-11T18:58:14.972Z,12.27
2022-12-11T19:00:42.589Z,13.15
2022-12-11T19:03:09.667Z,12.88
2022-12-11T19:05:36.497Z,12.88
2022-12-11T19:08:03.773Z,12.98
2022-12-11T19:10:30.323Z,13.35
2022-12-11T19:12:58.295Z,14.98
2022-12-11T19:15:24.857Z,13.85
2022-12-11T19:17:51.464Z,13.07
2022-12-11T19:20:47.449Z,13.00
2022-12-11T19:23:05.388Z,12.48
2022-12-11T19:25:32.500Z,12.68
2022-12-11T19:28:00.841Z,13.65
2022-12-11T19:30:27.360Z,13.07
2022-12-11T19:32:53.946Z,13.40
2022-12-11T19:35:20.454Z,14.05
2022-12-11T19:37:47.016Z,13.73
2022-12-11T19:40:13.548Z,13.45
2022-12-11T19:42:40.249Z,12.93
2022-12-11T19:45:09.033Z,14.68
2022-12-11T19:47:35.781Z,13.68
2022-12-11T19:50:02.889Z,12.57
2022-12-11T19:52:29.492Z,12.95
2022-12-11T19:55:01.388Z,11.68
2022-12-11T19:59:57.409Z,11.73
2022-12-11T20:02:25.893Z,13.93
2022-12-11T20:04:52.456Z,11.15
2022-12-11T20:07:19.455Z,12.35
2022-12-11T20:09:46.029Z,12.15
2022-12-11T20:12:12.718Z,13.38
2022-12-11T20:14:39.273Z,13.23
2022-12-11T20:17:14.613Z,13.80
2022-12-11T20:19:43.207Z,11.98
2022-12-11T20:22:10.445Z,12.15
2022-12-11T20:24:37.464Z,12.32
2022-12-11T20:27:04.244Z,11.35
2022-12-11T20:29:31.010Z,12.30
2022-12-11T20:31:57.571Z,10.45
2022-12-11T20:34:24.150Z,11.40
2022-12-11T20:36:52.846Z,12.07
2022-12-11T20:39:19.484Z,11.45
2022-12-11T20:41:46.081Z,11.68
2022-12-11T20:44:12.713Z,11.02
2022-12-11T20:46:39.227Z,12.35
2022-12-11T20:49:05.810Z,11.60
2022-12-11T20:51:32.396Z,13.27
2022-12-11T20:54:00.462Z,10.70
2022-12-11T20:56:28.677Z,12.93
2022-12-11T20:58:55.858Z,12.05
2022-12-11T21:01:24.404Z,11.50
2022-12-11T21:03:51.696Z,12.98
2022-12-11T21:06:19.845Z,13.25
2022-12-11T21:08:46.474Z,13.38
2022-12-11T21:11:14.492Z,14.27
2022-12-11T21:13:41.472Z,14.27
2022-12-11T21:16:09.300Z,15.20
2022-12-11T21:18:35.958Z,13.85
2022-12-11T21:21:02.813Z,15.10
2022-12-11T21:23:29.339Z,15.13
2022-12-11T21:25:55.864Z,14.02
2022-12-11T21:28:23.884Z,13.30
2022-12-11T21:30:50.653Z,12.32
2022-12-11T21:33:17.272Z,12.25
2022-12-11T21:35:43.778Z,13.98
2022-12-11T21:38:10.445Z,12.30
2022-12-11T21:40:36.968Z,11.55
2022-12-11T21:43:03.672Z,12.20
2022-12-11T21:46:00.251Z,13.65
2022-12-11T21:48:22.025Z,15.48
2022-12-11T21:50:48.515Z,12.23
2022-12-11T21:53:15.065Z,12.70
2022-12-11T21:55:42.054Z,12.60
2022-12-11T21:58:09.089Z,12.77
2022-12-11T22:00:39.229Z,12.60
2022-12-11T22:03:05.951Z,12.07
2022-12-11T22:05:32.469Z,13.30
2022-12-11T22:07:59.085Z,13.05
2022-12-11T22:10:25.744Z,12.95
2022-12-11T22:12:53.711Z,14.07
2022-12-11T22:15:20.357Z,14.50
2022-12-11T22:17:48.465Z,12.55
2022-12-11T22:20:14.952Z,13.70
2022-12-11T22:22:42.024Z,13.27
2022-12-11T22:25:09.141Z,14.10
2022-12-11T22:27:35.897Z,13.07
2022-12-11T22:30:02.618Z,14.77
2022-12-11T22:32:29.233Z,13.15
2022-12-11T22:34:59.798Z,11.60
2022-12-11T22:37:26.405Z,12.32
2022-12-11T22:39:53.052Z,10.93
2022-12-11T22:42:19.885Z,12.68
2022-12-11T22:44:46.356Z,11.90
2022-12-11T22:47:12.923Z,12.60
2022-12-11T22:49:39.407Z,11.70
2022-12-11T22:52:07.343Z,12.60
2022-12-11T22:54:34.067Z,12.73
2022-12-11T22:57:00.632Z,12.45
2022-12-11T22:59:27.128Z,11.50
2022-12-11T23:01:53.677Z,12.00
2022-12-11T23:04:20.176Z,13.82
2022-12-11T23:06:47.960Z,12.35
2022-12-11T23:09:15.834Z,12.30
2022-12-11T23:11:42.726Z,12.57
2022-12-11T23:14:14.691Z,12.63
2022-12-11T23:19:08.034Z,12.90
2022-12-11T23:21:35.304Z,15.50
2022-12-11T23:24:02.142Z,12.02
2022-12-11T23:26:30.895Z,14.23
2022-12-11T23:28:58.620Z,12.80
2022-12-11T23:31:26.608Z,13.30
2022-12-11T23:33:53.197Z,13.48
2022-12-11T23:36:19.973Z,12.82
2022-12-11T23:38:52.557Z,12.45
2022-12-11T23:41:21.404Z,13.10
2022-12-11T23:43:49.281Z,12.45
2022-12-11T23:46:19.446Z,13.75
2022-12-11T23:48:46.408Z,13.18
2022-12-11T23:51:15.137Z,13.98
2022-12-11T23:53:42.794Z,12.20
2022-12-11T23:56:12.156Z,12.80
2022-12-11T23:58:40.168Z,12.88
